Time;durP1;ratioP1;P1;durP2;ratioP2;P2;SDS_P1;SDS_P2;PMS_P1;PMS_P2;Temp;Humidity;BMP_temperature;BMP_pressure;BME280_temperature;BME280_humidity;BME280_pressure;Samples;Min_cycle;Max_cycle;Signal;HPM_P1;HPM_P2
2021/08/22 00:02:18;;;;;;;7.85;6.90;;;;;;;;;;5017021;28;20125;-83
2021/08/22 00:04:43;;;;;;;8.70;6.55;;;;;;;;;;5033777;28;20030;-83
2021/08/22 00:07:08;;;;;;;7.68;6.13;;;;;;;;;;5016586;28;20493;-83
2021/08/22 00:09:34;;;;;;;7.03;5.43;;;;;;;;;;4997084;28;20478;-84
2021/08/22 00:11:59;;;;;;;7.45;6.13;;;;;;;;;;5045784;28;20116;-84
2021/08/22 00:14:25;;;;;;;7.70;6.00;;;;;;;;;;5016210;28;20045;-84
2021/08/22 00:16:50;;;;;;;9.02;6.60;;;;;;;;;;4999257;28;20029;-84
2021/08/22 00:19:15;;;;;;;7.22;6.00;;;;;;;;;;4999236;28;20150;-84
2021/08/22 00:21:41;;;;;;;7.22;6.07;;;;;;;;;;5032321;28;20029;-84
2021/08/22 00:24:06;;;;;;;7.80;6.38;;;;;;;;;;5017800;28;20393;-84
2021/08/22 00:26:32;;;;;;;8.13;6.30;;;;;;;;;;5035325;28;20033;-83
2021/08/22 00:28:57;;;;;;;8.23;6.47;;;;;;;;;;5019570;28;20436;-83
2021/08/22 00:31:23;;;;;;;8.43;6.82;;;;;;;;;;5019090;28;20030;-83
2021/08/22 00:33:48;;;;;;;8.85;7.25;;;;;;;;;;5035233;28;20087;-83
2021/08/22 00:36:14;;;;;;;8.55;6.82;;;;;;;;;;5036725;28;20106;-83
2021/08/22 00:38:39;;;;;;;7.70;6.65;;;;;;;;;;5016075;28;20061;-83
2021/08/22 00:41:04;;;;;;;7.88;6.38;;;;;;;;;;5015356;28;20130;-83
2021/08/22 00:43:30;;;;;;;8.40;6.63;;;;;;;;;;5029059;28;20112;-83
2021/08/22 00:45:57;;;;;;;7.93;6.30;;;;;;;;;;5019497;28;20040;-83
2021/08/22 00:48:23;;;;;;;8.15;7.18;;;;;;;;;;5035203;28;20492;-83
2021/08/22 00:50:49;;;;;;;8.63;7.10;;;;;;;;;;5018804;28;20030;-83
2021/08/22 00:53:15;;;;;;;7.40;6.28;;;;;;;;;;5015738;28;20095;-82
2021/08/22 00:55:41;;;;;;;8.73;6.25;;;;;;;;;;5029495;28;20030;-83
2021/08/22 00:58:07;;;;;;;8.70;7.20;;;;;;;;;;5015263;28;20393;-83
2021/08/22 01:00:33;;;;;;;8.93;7.28;;;;;;;;;;5034391;28;20033;-83
2021/08/22 01:03:21;;;;;;;9.15;6.93;;;;;;;;;;5018158;28;20111;-83
2021/08/22 01:06:00;;;;;;;10.00;6.85;;;;;;;;;;5022999;28;20052;-83
2021/08/22 01:08:31;;;;;;;7.95;6.60;;;;;;;;;;5034214;28;20064;-83
2021/08/22 01:11:02;;;;;;;8.50;6.80;;;;;;;;;;5045175;28;20033;-83
2021/08/22 01:13:33;;;;;;;8.93;6.97;;;;;;;;;;5036407;28;20028;-83
2021/08/22 01:16:01;;;;;;;8.10;6.55;;;;;;;;;;5034045;28;20096;-82
2021/08/22 01:18:27;;;;;;;8.68;6.93;;;;;;;;;;5031081;28;20022;-82
2021/08/22 01:21:14;;;;;;;9.38;7.32;;;;;;;;;;5033305;28;20389;-82
2021/08/22 01:23:55;;;;;;;7.88;7.07;;;;;;;;;;5035328;28;20025;-82
2021/08/22 01:26:30;;;;;;;8.40;6.70;;;;;;;;;;5025640;28;20048;-82
2021/08/22 01:28:58;;;;;;;9.82;7.07;;;;;;;;;;5030745;28;20060;-82
2021/08/22 01:31:39;;;;;;;7.97;7.03;;;;;;;;;;5018733;28;20029;-82
2021/08/22 01:34:04;;;;;;;7.75;6.43;;;;;;;;;;5035185;28;20023;-82
2021/08/22 01:36:31;;;;;;;10.85;6.38;;;;;;;;;;5017525;28;20544;-82
2021/08/22 01:38:57;;;;;;;11.82;6.65;;;;;;;;;;5024475;28;20049;-82
2021/08/22 01:41:24;;;;;;;8.18;6.20;;;;;;;;;;5034871;28;20402;-82
2021/08/22 01:43:51;;;;;;;7.97;6.13;;;;;;;;;;5017419;28;20028;-82
2021/08/22 01:46:19;;;;;;;8.10;6.22;;;;;;;;;;5024439;28;20363;-82
2021/08/22 01:48:46;;;;;;;8.88;6.70;;;;;;;;;;5030722;28;20029;-82
2021/08/22 01:51:12;;;;;;;9.70;6.93;;;;;;;;;;5017145;28;20120;-82
2021/08/22 01:53:37;;;;;;;8.63;7.05;;;;;;;;;;5033687;28;20083;-82
2021/08/22 01:56:03;;;;;;;9.98;7.70;;;;;;;;;;5017434;28;20029;-82
2021/08/22 01:58:28;;;;;;;7.97;6.80;;;;;;;;;;5033497;28;20032;-81
2021/08/22 02:00:54;;;;;;;10.43;7.95;;;;;;;;;;5034955;28;20068;-82
2021/08/22 02:03:47;;;;;;;10.05;8.43;;;;;;;;;;5034569;28;20040;-82
2021/08/22 02:06:18;;;;;;;;;;;;;;;;;;5017266;28;20040;-82
2021/08/22 02:08:49;;;;;;;11.77;8.93;;;;;;;;;;5034650;28;19913;-82
2021/08/22 02:11:19;;;;;;;10.45;9.35;;;;;;;;;;5033311;28;20025;-82
2021/08/22 02:14:29;;;;;;;12.30;10.20;;;;;;;;;;5029145;28;20025;-82
2021/08/22 02:16:56;;;;;;;12.15;9.73;;;;;;;;;;5033889;28;20053;-82
2021/08/22 02:19:24;;;;;;;12.68;10.30;;;;;;;;;;5033063;28;20079;-81
2021/08/22 02:21:50;;;;;;;12.80;11.32;;;;;;;;;;5033174;28;20113;-81
2021/08/22 02:24:17;;;;;;;12.73;11.40;;;;;;;;;;5032972;28;20362;-81
2021/08/22 02:26:42;;;;;;;14.98;11.68;;;;;;;;;;5016807;28;20029;-81
2021/08/22 02:29:08;;;;;;;14.88;12.20;;;;;;;;;;5016318;28;20026;-81
2021/08/22 02:31:33;;;;;;;14.55;12.43;;;;;;;;;;5032882;28;20465;-81
2021/08/22 02:33:59;;;;;;;16.05;13.68;;;;;;;;;;5032814;28;20029;-81
2021/08/22 02:36:26;;;;;;;15.10;13.55;;;;;;;;;;5032983;28;20021;-81
2021/08/22 02:38:52;;;;;;;16.02;14.15;;;;;;;;;;5034002;28;20477;-81
2021/08/22 02:41:17;;;;;;;16.17;13.68;;;;;;;;;;5032721;28;20032;-81
2021/08/22 02:43:43;;;;;;;16.67;13.85;;;;;;;;;;5033001;28;20035;-81
2021/08/22 02:46:09;;;;;;;19.77;14.52;;;;;;;;;;5015921;28;20025;-81
2021/08/22 02:48:34;;;;;;;17.52;15.57;;;;;;;;;;5032481;28;20035;-81
2021/08/22 02:51:01;;;;;;;21.08;15.75;;;;;;;;;;5033140;28;20128;-81
2021/08/22 02:53:26;;;;;;;18.40;16.33;;;;;;;;;;5033959;28;20488;-81
2021/08/22 02:55:52;;;;;;;20.65;17.45;;;;;;;;;;4999650;28;20026;-81
2021/08/22 02:58:18;;;;;;;19.48;17.20;;;;;;;;;;5032695;28;20052;-81
2021/08/22 03:00:44;;;;;;;22.42;18.08;;;;;;;;;;5016377;28;20083;-81
2021/08/22 03:03:09;;;;;;;22.13;19.08;;;;;;;;;;5032674;28;20037;-81
2021/08/22 03:05:35;;;;;;;20.52;18.33;;;;;;;;;;5016365;28;20029;-81
2021/08/22 03:08:00;;;;;;;23.48;20.02;;;;;;;;;;5015849;28;20037;-81
2021/08/22 03:10:26;;;;;;;24.23;19.27;;;;;;;;;;5015988;28;20022;-81
2021/08/22 03:12:51;;;;;;;22.38;18.70;;;;;;;;;;5016280;28;20056;-81
2021/08/22 03:15:17;;;;;;;24.17;19.73;;;;;;;;;;5031836;28;20516;-81
2021/08/22 03:17:42;;;;;;;23.05;18.52;;;;;;;;;;5031296;28;20389;-81
2021/08/22 03:20:09;;;;;;;24.05;19.20;;;;;;;;;;5015735;28;20048;-81
2021/08/22 03:22:34;;;;;;;25.27;19.73;;;;;;;;;;5033507;28;20377;-81
2021/08/22 03:25:01;;;;;;;23.08;19.00;;;;;;;;;;5033229;28;20025;-81
2021/08/22 03:27:26;;;;;;;23.23;19.25;;;;;;;;;;5032372;28;20025;-81
2021/08/22 03:29:52;;;;;;;23.48;18.98;;;;;;;;;;5015715;28;20035;-81
2021/08/22 03:32:17;;;;;;;22.45;18.85;;;;;;;;;;5033411;28;20061;-81
2021/08/22 03:34:43;;;;;;;25.50;19.23;;;;;;;;;;5033541;28;20417;-81
2021/08/22 03:37:08;;;;;;;24.58;19.60;;;;;;;;;;4999272;28;20457;-81
2021/08/22 03:39:34;;;;;;;21.08;18.45;;;;;;;;;;5031962;28;20021;-81
2021/08/22 03:42:00;;;;;;;26.60;18.98;;;;;;;;;;5015639;28;20112;-81
2021/08/22 03:44:25;;;;;;;24.13;18.77;;;;;;;;;;5033341;28;20021;-81
2021/08/22 03:46:50;;;;;;;24.98;18.60;;;;;;;;;;5032326;28;20550;-81
2021/08/22 03:49:16;;;;;;;22.65;18.73;;;;;;;;;;5015298;28;20438;-81
2021/08/22 03:51:41;;;;;;;26.38;18.83;;;;;;;;;;5031847;28;20116;-81
2021/08/22 03:54:07;;;;;;;23.55;18.55;;;;;;;;;;5032079;28;20022;-81
2021/08/22 03:56:32;;;;;;;24.40;18.77;;;;;;;;;;5015295;28;20465;-81
2021/08/22 03:58:58;;;;;;;25.55;18.98;;;;;;;;;;5034551;28;20108;-81
2021/08/22 04:01:23;;;;;;;24.27;18.55;;;;;;;;;;5019589;28;20493;-81
2021/08/22 04:03:50;;;;;;;25.95;19.77;;;;;;;;;;5036062;28;20029;-81
2021/08/22 04:06:16;;;;;;;25.05;19.50;;;;;;;;;;5019540;28;20132;-81
2021/08/22 04:08:42;;;;;;;26.50;19.45;;;;;;;;;;5036047;28;20505;-81
2021/08/22 04:11:09;;;;;;;25.13;19.50;;;;;;;;;;5038741;28;20390;-81
2021/08/22 04:13:34;;;;;;;27.73;21.05;;;;;;;;;;5035725;28;20040;-81
2021/08/22 04:16:00;;;;;;;30.23;20.52;;;;;;;;;;5035258;28;20049;-81
2021/08/22 04:18:25;;;;;;;30.13;21.25;;;;;;;;;;5019483;28;20079;-81
2021/08/22 04:20:51;;;;;;;28.10;20.58;;;;;;;;;;5036830;28;20063;-81
2021/08/22 04:23:17;;;;;;;29.67;21.10;;;;;;;;;;5019076;28;20018;-81
2021/08/22 04:25:43;;;;;;;30.73;22.00;;;;;;;;;;5018753;28;20025;-81
2021/08/22 04:28:09;;;;;;;30.42;21.65;;;;;;;;;;5036755;28;20389;-81
2021/08/22 04:30:34;;;;;;;32.83;22.25;;;;;;;;;;5035320;28;20021;-81
2021/08/22 04:33:00;;;;;;;31.23;22.27;;;;;;;;;;5019183;28;20033;-81
2021/08/22 04:35:28;;;;;;;34.30;22.00;;;;;;;;;;5018891;28;20378;-81
2021/08/22 04:37:53;;;;;;;27.98;20.00;;;;;;;;;;5036424;28;20017;-81
2021/08/22 04:40:19;;;;;;;32.30;21.65;;;;;;;;;;5035483;28;20476;-81
2021/08/22 04:42:44;;;;;;;30.63;21.02;;;;;;;;;;5002362;28;20110;-81
2021/08/22 04:45:10;;;;;;;32.75;21.23;;;;;;;;;;5018682;28;20033;-81
2021/08/22 04:47:35;;;;;;;34.70;22.73;;;;;;;;;;5001754;28;20507;-81
2021/08/22 04:50:01;;;;;;;32.83;21.25;;;;;;;;;;5036337;28;20548;-81
2021/08/22 04:52:26;;;;;;;31.42;21.70;;;;;;;;;;5018680;28;20025;-81
2021/08/22 04:54:51;;;;;;;30.98;21.10;;;;;;;;;;5034695;28;20550;-81
2021/08/22 04:57:17;;;;;;;30.70;21.23;;;;;;;;;;5018400;28;20036;-81
2021/08/22 04:59:42;;;;;;;30.40;20.73;;;;;;;;;;5015156;28;20026;-81
2021/08/22 05:02:08;;;;;;;30.08;20.95;;;;;;;;;;5033063;28;20060;-81
2021/08/22 05:04:33;;;;;;;27.85;20.00;;;;;;;;;;5018270;28;20030;-81
2021/08/22 05:06:59;;;;;;;28.63;20.10;;;;;;;;;;5034653;28;20033;-81
2021/08/22 05:09:24;;;;;;;26.48;19.92;;;;;;;;;;5017831;28;20037;-81
2021/08/22 05:11:50;;;;;;;27.17;19.25;;;;;;;;;;5008023;28;20034;-81
2021/08/22 05:14:15;;;;;;;28.08;19.65;;;;;;;;;;5035759;28;20029;-81
2021/08/22 05:16:41;;;;;;;29.02;19.10;;;;;;;;;;5017968;28;20053;-81
2021/08/22 05:19:07;;;;;;;27.88;19.83;;;;;;;;;;5034901;28;20469;-81
2021/08/22 05:21:32;;;;;;;27.88;19.67;;;;;;;;;;5019403;28;20128;-81
2021/08/22 05:23:58;;;;;;;28.48;20.58;;;;;;;;;;5018152;28;20116;-81
2021/08/22 05:26:23;;;;;;;28.90;19.10;;;;;;;;;;5018145;28;20043;-82
2021/08/22 05:28:49;;;;;;;33.15;19.65;;;;;;;;;;5030333;28;20069;-82
2021/08/22 05:31:14;;;;;;;28.25;19.20;;;;;;;;;;5035339;28;20104;-81
2021/08/22 05:33:39;;;;;;;28.02;19.58;;;;;;;;;;5018350;28;20079;-81
2021/08/22 05:36:19;;;;;;;29.48;20.45;;;;;;;;;;5017906;28;20509;-81
2021/08/22 05:38:46;;;;;;;27.75;19.20;;;;;;;;;;5017735;28;20029;-81
2021/08/22 05:41:12;;;;;;;30.65;20.10;;;;;;;;;;5034111;28;20029;-81
2021/08/22 05:43:38;;;;;;;28.73;19.75;;;;;;;;;;5034101;28;20083;-81
2021/08/22 05:46:03;;;;;;;30.50;20.65;;;;;;;;;;5018341;28;20030;-81
2021/08/22 05:48:29;;;;;;;26.67;19.55;;;;;;;;;;5017772;28;20103;-82
2021/08/22 05:50:54;;;;;;;26.13;19.48;;;;;;;;;;4997911;28;20079;-81
2021/08/22 05:53:20;;;;;;;28.63;20.05;;;;;;;;;;5006099;28;20033;-82
2021/08/22 05:55:45;;;;;;;28.13;20.50;;;;;;;;;;5017428;28;20378;-82
2021/08/22 05:58:10;;;;;;;25.73;19.88;;;;;;;;;;5017690;28;20037;-82
2021/08/22 06:00:37;;;;;;;30.63;20.83;;;;;;;;;;5017564;28;20029;-82
2021/08/22 06:03:03;;;;;;;30.08;20.52;;;;;;;;;;4999524;28;20485;-82
2021/08/22 06:05:29;;;;;;;26.23;20.10;;;;;;;;;;5033907;28;20120;-82
2021/08/22 06:07:54;;;;;;;26.70;19.95;;;;;;;;;;5033663;28;20493;-82
2021/08/22 06:10:20;;;;;;;27.02;19.25;;;;;;;;;;5001156;28;20030;-82
2021/08/22 06:12:46;;;;;;;25.02;18.55;;;;;;;;;;5034800;28;20491;-82
2021/08/22 06:15:12;;;;;;;25.77;18.17;;;;;;;;;;5001135;28;20501;-82
2021/08/22 06:17:37;;;;;;;23.40;16.80;;;;;;;;;;4999987;28;20076;-82
2021/08/22 06:20:03;;;;;;;24.70;17.60;;;;;;;;;;5017096;28;20387;-82
2021/08/22 06:22:28;;;;;;;21.65;16.48;;;;;;;;;;4999075;28;20634;-82
2021/08/22 06:24:54;;;;;;;24.75;16.83;;;;;;;;;;5033515;28;20061;-82
2021/08/22 06:27:19;;;;;;;24.00;16.45;;;;;;;;;;5033535;28;20037;-82
2021/08/22 06:29:45;;;;;;;24.27;16.73;;;;;;;;;;5016701;28;20033;-82
2021/08/22 06:32:10;;;;;;;27.33;17.20;;;;;;;;;;5033791;28;20041;-82
2021/08/22 06:34:35;;;;;;;23.17;16.90;;;;;;;;;;5033403;28;20388;-82
2021/08/22 06:37:01;;;;;;;20.65;15.98;;;;;;;;;;5016796;28;20060;-82
2021/08/22 06:39:26;;;;;;;22.67;16.30;;;;;;;;;;5016855;28;20026;-82
2021/08/22 06:41:52;;;;;;;24.10;15.85;;;;;;;;;;4997444;28;20045;-82
2021/08/22 06:44:17;;;;;;;20.05;16.02;;;;;;;;;;4996903;28;20029;-82
2021/08/22 06:46:43;;;;;;;28.27;17.05;;;;;;;;;;5033019;28;20036;-82
2021/08/22 06:49:09;;;;;;;21.70;16.80;;;;;;;;;;5000155;28;20021;-82
2021/08/22 06:51:35;;;;;;;24.70;17.45;;;;;;;;;;5016910;28;20120;-82
2021/08/22 06:54:00;;;;;;;22.90;17.63;;;;;;;;;;5016652;28;20030;-82
2021/08/22 06:56:26;;;;;;;28.27;18.63;;;;;;;;;;5016507;28;20103;-82
2021/08/22 06:58:51;;;;;;;25.92;18.30;;;;;;;;;;5000050;28;20031;-82
2021/08/22 07:01:17;;;;;;;27.65;19.30;;;;;;;;;;5016492;28;20055;-82
2021/08/22 07:03:42;;;;;;;25.88;20.10;;;;;;;;;;5033108;28;20087;-82
2021/08/22 07:06:08;;;;;;;29.30;21.10;;;;;;;;;;5032944;28;20029;-82
2021/08/22 07:08:33;;;;;;;26.90;21.05;;;;;;;;;;5016713;28;20034;-82
2021/08/22 07:10:59;;;;;;;26.52;21.55;;;;;;;;;;5020393;28;20053;-82
2021/08/22 07:13:24;;;;;;;28.17;21.45;;;;;;;;;;5032748;28;20030;-82
2021/08/22 07:15:49;;;;;;;37.60;20.77;;;;;;;;;;5015957;28;20049;-82
2021/08/22 07:18:15;;;;;;;26.13;20.10;;;;;;;;;;5033695;28;20026;-83
2021/08/22 07:20:40;;;;;;;26.83;20.40;;;;;;;;;;5016036;28;20124;-82
2021/08/22 07:23:06;;;;;;;27.35;19.33;;;;;;;;;;5032137;28;20030;-83
2021/08/22 07:25:31;;;;;;;22.88;17.95;;;;;;;;;;5032274;28;20040;-83
2021/08/22 07:27:56;;;;;;;25.77;18.13;;;;;;;;;;5016464;28;20029;-83
2021/08/22 07:30:22;;;;;;;23.00;16.60;;;;;;;;;;5033242;28;20063;-83
2021/08/22 07:32:48;;;;;;;23.63;16.70;;;;;;;;;;5015838;28;20029;-83
2021/08/22 07:35:14;;;;;;;20.55;16.00;;;;;;;;;;5033912;28;20101;-83
2021/08/22 07:37:39;;;;;;;24.55;17.70;;;;;;;;;;5032567;28;20052;-83
2021/08/22 07:40:05;;;;;;;21.30;15.00;;;;;;;;;;5016299;28;20087;-83
2021/08/22 07:42:31;;;;;;;19.02;15.93;;;;;;;;;;5032157;28;20022;-83
2021/08/22 07:44:56;;;;;;;21.55;15.75;;;;;;;;;;5032848;28;20025;-83
2021/08/22 07:47:22;;;;;;;19.63;15.18;;;;;;;;;;5032571;28;20029;-83
2021/08/22 07:49:47;;;;;;;20.55;16.05;;;;;;;;;;5033836;28;20038;-83
2021/08/22 07:52:12;;;;;;;20.70;16.80;;;;;;;;;;5034272;28;20080;-83
2021/08/22 07:54:38;;;;;;;21.15;16.17;;;;;;;;;;5032960;28;20052;-83
2021/08/22 07:57:04;;;;;;;21.38;16.13;;;;;;;;;;5016645;28;20029;-83
2021/08/22 07:59:29;;;;;;;21.27;16.08;;;;;;;;;;5016996;28;20049;-83
2021/08/22 08:01:56;;;;;;;18.05;15.32;;;;;;;;;;5016128;28;20040;-83
2021/08/22 08:04:22;;;;;;;21.58;16.63;;;;;;;;;;5032993;28;20025;-83
2021/08/22 08:06:47;;;;;;;22.20;15.38;;;;;;;;;;5034517;28;20050;-83
2021/08/22 08:09:13;;;;;;;20.70;15.80;;;;;;;;;;5000107;28;20028;-83
2021/08/22 08:11:38;;;;;;;23.42;17.08;;;;;;;;;;5033158;28;20017;-83
2021/08/22 08:14:03;;;;;;;20.15;16.58;;;;;;;;;;5000903;28;20079;-84
2021/08/22 08:16:29;;;;;;;22.52;17.45;;;;;;;;;;5012496;28;20053;-84
2021/08/22 08:18:54;;;;;;;21.45;17.30;;;;;;;;;;5033458;28;20033;-84
2021/08/22 08:21:20;;;;;;;19.52;17.23;;;;;;;;;;5000796;28;20486;-84
2021/08/22 08:23:45;;;;;;;22.55;17.10;;;;;;;;;;5033413;28;20033;-84
2021/08/22 08:26:11;;;;;;;22.17;17.35;;;;;;;;;;5017780;28;20040;-84
2021/08/22 08:28:36;;;;;;;24.55;18.73;;;;;;;;;;5016923;28;20026;-84
2021/08/22 08:31:02;;;;;;;21.25;17.45;;;;;;;;;;5034150;28;20055;-84
2021/08/22 08:33:28;;;;;;;21.23;17.55;;;;;;;;;;5016498;28;20021;-84
2021/08/22 08:35:53;;;;;;;21.30;17.13;;;;;;;;;;5016038;28;20037;-84
2021/08/22 08:38:18;;;;;;;19.30;15.68;;;;;;;;;;5015062;28;20370;-84
2021/08/22 08:40:45;;;;;;;19.08;16.23;;;;;;;;;;5015633;28;20025;-84
2021/08/22 08:43:11;;;;;;;19.92;16.90;;;;;;;;;;4996208;28;20034;-84
2021/08/22 08:45:52;;;;;;;24.27;15.55;;;;;;;;;;5031055;28;20025;-84
2021/08/22 08:48:27;;;;;;;18.92;16.38;;;;;;;;;;5037349;28;20522;-84
2021/08/22 08:51:27;;;;;;;19.17;16.08;;;;;;;;;;5035217;28;20033;-84
2021/08/22 08:54:08;;;;;;;19.40;16.90;;;;;;;;;;5028012;28;20099;-84
2021/08/22 08:56:44;;;;;;;18.27;15.75;;;;;;;;;;5037845;28;20496;-84
2021/08/22 08:59:11;;;;;;;16.55;14.15;;;;;;;;;;5005629;28;20018;-84
2021/08/22 09:01:37;;;;;;;18.10;13.82;;;;;;;;;;5036781;28;20083;-84
2021/08/22 09:04:27;;;;;;;15.07;12.88;;;;;;;;;;5005839;28;20029;-84
2021/08/22 09:07:26;;;;;;;15.27;12.77;;;;;;;;;;5037769;28;20025;-84
2021/08/22 09:10:29;;;;;;;14.55;11.40;;;;;;;;;;5038755;28;20112;-84
2021/08/22 09:13:32;;;;;;;12.27;10.02;;;;;;;;;;5037040;28;20047;-84
2021/08/22 09:16:00;;;;;;;11.63;9.77;;;;;;;;;;5032837;28;20048;-84
2021/08/22 09:19:03;;;;;;;10.77;9.68;;;;;;;;;;5037995;28;20018;-84
2021/08/22 09:21:53;;;;;;;11.27;9.97;;;;;;;;;;5022318;28;20091;-84
2021/08/22 09:24:31;;;;;;;10.35;9.07;;;;;;;;;;5036607;28;20561;-84
2021/08/22 09:27:18;;;;;;;10.75;9.40;;;;;;;;;;5036435;28;20029;-84
2021/08/22 09:30:11;;;;;;;11.65;8.85;;;;;;;;;;5037703;28;20025;-84
2021/08/22 09:33:14;;;;;;;12.68;8.85;;;;;;;;;;5038705;28;20122;-85
2021/08/22 09:36:17;;;;;;;11.02;8.50;;;;;;;;;;5037954;28;20461;-84
2021/08/22 09:39:19;;;;;;;11.53;8.80;;;;;;;;;;5035953;28;20053;-84
2021/08/22 09:41:53;;;;;;;10.77;8.93;;;;;;;;;;5036888;28;20026;-84
2021/08/22 09:44:46;;;;;;;11.30;9.38;;;;;;;;;;5036417;28;20028;-84
2021/08/22 09:47:49;;;;;;;12.25;9.45;;;;;;;;;;5035481;28;20529;-84
2021/08/22 09:50:51;;;;;;;10.82;9.38;;;;;;;;;;5019250;28;20025;-84
2021/08/22 09:53:54;;;;;;;14.20;10.23;;;;;;;;;;5034934;28;20072;-84
2021/08/22 09:56:57;;;;;;;14.77;10.97;;;;;;;;;;5022336;28;20025;-84
2021/08/22 09:59:53;;;;;;;14.53;12.57;;;;;;;;;;5034293;28;20021;-84
2021/08/22 10:02:29;;;;;;;17.02;14.00;;;;;;;;;;5034239;28;20766;-84
2021/08/22 10:05:06;;;;;;;19.25;15.07;;;;;;;;;;5034970;28;20025;-84
2021/08/22 10:07:47;;;;;;;18.10;14.70;;;;;;;;;;5034965;28;20030;-84
2021/08/22 10:10:25;;;;;;;19.38;15.75;;;;;;;;;;5038919;28;20025;-84
2021/08/22 10:12:50;;;;;;;19.02;14.45;;;;;;;;;;5024054;28;20033;-84
2021/08/22 10:15:18;;;;;;;17.02;15.23;;;;;;;;;;5023073;28;20034;-84
2021/08/22 10:17:48;;;;;;;18.13;15.73;;;;;;;;;;5035144;28;20037;-84
2021/08/22 10:20:14;;;;;;;18.40;16.00;;;;;;;;;;5034127;28;20040;-84
2021/08/22 10:22:40;;;;;;;18.92;16.42;;;;;;;;;;5017339;28;20021;-84
2021/08/22 10:25:09;;;;;;;19.20;16.88;;;;;;;;;;5017478;28;20029;-84
2021/08/22 10:27:37;;;;;;;22.83;16.42;;;;;;;;;;5033700;28;20022;-84
2021/08/22 10:30:03;;;;;;;18.13;15.85;;;;;;;;;;5035835;28;20048;-84
2021/08/22 10:32:29;;;;;;;17.25;14.50;;;;;;;;;;5033892;28;20017;-84
2021/08/22 10:35:07;;;;;;;16.40;13.85;;;;;;;;;;5033601;28;20029;-84
2021/08/22 10:37:34;;;;;;;15.80;14.10;;;;;;;;;;5033269;28;20032;-84
2021/08/22 10:40:25;;;;;;;15.77;13.25;;;;;;;;;;5016790;28;20029;-84
2021/08/22 10:43:05;;;;;;;15.98;13.18;;;;;;;;;;5023079;28;20029;-84
2021/08/22 10:45:40;;;;;;;17.80;14.25;;;;;;;;;;5033437;28;20030;-84
2021/08/22 10:48:08;;;;;;;14.63;13.02;;;;;;;;;;5033429;28;20477;-83
2021/08/22 10:50:59;;;;;;;17.13;13.73;;;;;;;;;;5033501;28;20021;-83
2021/08/22 10:53:31;;;;;;;14.52;12.95;;;;;;;;;;5034537;28;20029;-84
2021/08/22 10:55:58;;;;;;;16.73;14.13;;;;;;;;;;5035020;28;20029;-84
2021/08/22 10:59:08;;;;;;;18.00;14.30;;;;;;;;;;5034111;28;20266;-84
2021/08/22 11:01:36;;;;;;;15.38;13.10;;;;;;;;;;5027402;28;20088;-84
2021/08/22 11:04:17;;;;;;;14.68;12.52;;;;;;;;;;5032576;28;20079;-84
2021/08/22 11:07:02;;;;;;;13.93;12.43;;;;;;;;;;5033347;28;20121;-84
2021/08/22 11:09:44;;;;;;;14.48;12.77;;;;;;;;;;5024732;28;20444;-83
2021/08/22 11:12:29;;;;;;;18.88;12.98;;;;;;;;;;5033113;28;20032;-83
2021/08/22 11:14:57;;;;;;;14.82;12.45;;;;;;;;;;5033881;28;20025;-83
2021/08/22 11:17:24;;;;;;;16.02;12.02;;;;;;;;;;5034506;28;20056;-83
2021/08/22 11:19:50;;;;;;;19.15;13.85;;;;;;;;;;5017486;28;20377;-83
2021/08/22 11:22:26;;;;;;;20.15;13.35;;;;;;;;;;5032554;28;20137;-83
2021/08/22 11:24:53;;;;;;;16.88;13.15;;;;;;;;;;5032915;28;20517;-83
2021/08/22 11:27:21;;;;;;;17.83;12.90;;;;;;;;;;5000099;28;20030;-84
2021/08/22 11:29:53;;;;;;;17.40;13.38;;;;;;;;;;5000497;28;20025;-84
2021/08/22 11:32:19;;;;;;;18.00;13.38;;;;;;;;;;5033088;28;20025;-83
2021/08/22 11:34:44;;;;;;;16.25;13.52;;;;;;;;;;5016121;28;20029;-83
2021/08/22 11:37:14;;;;;;;16.05;13.10;;;;;;;;;;5015850;28;20095;-83
2021/08/22 11:39:40;;;;;;;17.23;14.23;;;;;;;;;;5021348;28;20014;-83
2021/08/22 11:42:05;;;;;;;14.73;12.63;;;;;;;;;;5016098;28;20531;-83
2021/08/22 11:44:30;;;;;;;15.18;13.20;;;;;;;;;;4995763;28;20030;-83
2021/08/22 11:46:57;;;;;;;18.60;13.55;;;;;;;;;;5040742;28;20037;-83
2021/08/22 11:49:24;;;;;;;19.35;12.75;;;;;;;;;;5032030;28;20057;-83
2021/08/22 11:51:51;;;;;;;16.33;13.20;;;;;;;;;;5033844;28;20026;-83
2021/08/22 11:54:18;;;;;;;16.63;12.60;;;;;;;;;;5033265;28;20017;-83
2021/08/22 11:56:44;;;;;;;16.65;12.50;;;;;;;;;;5032183;28;20116;-83
2021/08/22 11:59:26;;;;;;;14.07;10.93;;;;;;;;;;5031929;28;20060;-83
2021/08/22 12:02:20;;;;;;;14.98;11.75;;;;;;;;;;5032528;28;20033;-83
2021/08/22 12:04:46;;;;;;;14.32;10.73;;;;;;;;;;5031988;28;20040;-83
2021/08/22 12:07:12;;;;;;;16.02;11.07;;;;;;;;;;4995945;28;20040;-83
2021/08/22 12:09:37;;;;;;;16.65;11.85;;;;;;;;;;5027809;28;20385;-83
2021/08/22 12:12:17;;;;;;;18.40;12.25;;;;;;;;;;5039898;28;20079;-83
2021/08/22 12:14:43;;;;;;;13.57;11.07;;;;;;;;;;5018916;28;20025;-83
2021/08/22 12:17:11;;;;;;;13.27;10.50;;;;;;;;;;5032755;28;20058;-83
2021/08/22 12:19:37;;;;;;;14.82;11.27;;;;;;;;;;5033911;28;20048;-83
2021/08/22 12:22:09;;;;;;;13.60;10.88;;;;;;;;;;5035966;28;20033;-82
2021/08/22 12:24:35;;;;;;;13.05;10.88;;;;;;;;;;5018936;28;20477;-82
2021/08/22 12:27:02;;;;;;;12.25;7.82;;;;;;;;;;5035648;28;20120;-82
2021/08/22 12:29:32;;;;;;;10.70;7.18;;;;;;;;;;5035645;28;20028;-82
2021/08/22 12:32:08;;;;;;;11.45;6.88;;;;;;;;;;5019230;28;20498;-82
2021/08/22 12:34:34;;;;;;;11.07;6.93;;;;;;;;;;5038322;28;20578;-82
2021/08/22 12:37:08;;;;;;;11.98;6.35;;;;;;;;;;5038599;28;20021;-82
2021/08/22 12:39:33;;;;;;;10.43;6.53;;;;;;;;;;5038375;28;20014;-82
2021/08/22 12:41:59;;;;;;;9.13;6.03;;;;;;;;;;5021867;28;20362;-82
2021/08/22 12:44:26;;;;;;;9.82;6.00;;;;;;;;;;5019549;28;20032;-82
2021/08/22 12:46:56;;;;;;;9.48;4.35;;;;;;;;;;5036252;28;20033;-82
2021/08/22 12:49:22;;;;;;;6.30;3.63;;;;;;;;;;5035955;28;20389;-82
2021/08/22 12:51:49;;;;;;;8.50;3.72;;;;;;;;;;5019698;28;20060;-82
2021/08/22 12:54:15;;;;;;;5.40;3.58;;;;;;;;;;5038373;28;20130;-82
2021/08/22 12:56:40;;;;;;;10.48;5.40;;;;;;;;;;5019752;28;20048;-82
2021/08/22 12:59:05;;;;;;;10.13;6.15;;;;;;;;;;5035736;28;20108;-81
2021/08/22 13:01:31;;;;;;;7.75;5.43;;;;;;;;;;5035705;28;20021;-82
2021/08/22 13:03:57;;;;;;;10.88;5.63;;;;;;;;;;5037706;28;20055;-82
2021/08/22 13:06:23;;;;;;;7.68;5.53;;;;;;;;;;5019610;28;20413;-82
2021/08/22 13:08:49;;;;;;;8.88;6.38;;;;;;;;;;5018881;28;20051;-81
2021/08/22 13:11:15;;;;;;;7.28;5.00;;;;;;;;;;5036569;28;20029;-81
2021/08/22 13:13:40;;;;;;;8.55;5.65;;;;;;;;;;5035076;28;20040;-81
2021/08/22 13:16:07;;;;;;;7.93;5.22;;;;;;;;;;5034536;28;20057;-81
2021/08/22 13:18:34;;;;;;;7.40;5.13;;;;;;;;;;5034890;28;20083;-81
2021/08/22 13:21:05;;;;;;;8.30;5.20;;;;;;;;;;5036357;28;20064;-82
2021/08/22 13:23:34;;;;;;;6.70;5.07;;;;;;;;;;5022900;28;20040;-82
2021/08/22 13:26:01;;;;;;;8.23;4.88;;;;;;;;;;5032555;28;20036;-82
2021/08/22 13:28:27;;;;;;;9.48;6.07;;;;;;;;;;5031275;28;20033;-82
2021/08/22 13:30:53;;;;;;;8.07;5.32;;;;;;;;;;5033478;28;20033;-81
2021/08/22 13:33:18;;;;;;;9.13;5.97;;;;;;;;;;5036347;28;20026;-81
2021/08/22 13:35:44;;;;;;;7.07;4.90;;;;;;;;;;5034629;28;20108;-81
2021/08/22 13:38:09;;;;;;;7.05;4.53;;;;;;;;;;5035008;28;20022;-81
2021/08/22 13:40:35;;;;;;;5.90;4.13;;;;;;;;;;5017874;28;20058;-81
2021/08/22 13:43:00;;;;;;;6.65;4.75;;;;;;;;;;5034615;28;20037;-81
2021/08/22 13:45:26;;;;;;;5.70;4.00;;;;;;;;;;5018486;28;20029;-81
2021/08/22 13:47:52;;;;;;;8.23;4.40;;;;;;;;;;5036099;28;20037;-81
2021/08/22 13:50:18;;;;;;;5.53;3.80;;;;;;;;;;5034669;28;20044;-81
2021/08/22 13:52:45;;;;;;;6.97;4.20;;;;;;;;;;5034701;28;20032;-81
2021/08/22 13:55:14;;;;;;;6.80;4.20;;;;;;;;;;5036010;28;20385;-81
2021/08/22 13:57:39;;;;;;;5.25;3.80;;;;;;;;;;5014349;28;20390;-81
2021/08/22 14:00:07;;;;;;;5.00;3.50;;;;;;;;;;5028226;28;20055;-81
2021/08/22 14:02:34;;;;;;;8.05;3.30;;;;;;;;;;5035339;28;20104;-81
2021/08/22 14:04:59;;;;;;;6.07;3.25;;;;;;;;;;5014093;28;20080;-81
2021/08/22 14:07:25;;;;;;;5.15;2.95;;;;;;;;;;5014663;28;20022;-81
2021/08/22 14:09:50;;;;;;;5.97;2.90;;;;;;;;;;5017568;28;20029;-81
2021/08/22 14:12:16;;;;;;;3.97;2.80;;;;;;;;;;5017158;28;20370;-81
2021/08/22 14:14:42;;;;;;;5.90;3.33;;;;;;;;;;5033922;28;20027;-81
2021/08/22 14:17:08;;;;;;;6.18;3.55;;;;;;;;;;5033851;28;20045;-81
2021/08/22 14:19:33;;;;;;;6.90;4.15;;;;;;;;;;4999807;28;20501;-81
2021/08/22 14:22:00;;;;;;;6.35;3.35;;;;;;;;;;5033866;28;20049;-81
2021/08/22 14:24:25;;;;;;;4.70;3.10;;;;;;;;;;5033680;28;20156;-81
2021/08/22 14:26:51;;;;;;;6.68;3.00;;;;;;;;;;5016626;28;20124;-81
2021/08/22 14:29:16;;;;;;;4.35;2.90;;;;;;;;;;5016833;28;20029;-81
2021/08/22 14:31:41;;;;;;;4.20;3.08;;;;;;;;;;5014739;28;20555;-81
2021/08/22 14:34:07;;;;;;;5.43;3.38;;;;;;;;;;5034676;28;20041;-81
2021/08/22 14:36:37;;;;;;;5.65;3.97;;;;;;;;;;5033321;28;20025;-81
2021/08/22 14:39:04;;;;;;;6.80;4.30;;;;;;;;;;5033395;28;20029;-81